Victoria International Airport
CYYJ : rendu visible

Aérodrome :











RETROUVEZ-NOUS SUR...

 
LOGIN :

S'inscrire | Disclaimer

   EN    FR    IT 

 









Légende :    VFR   VFR Marginal   IFR   IFR Intensif   IFR Très Intensif
Visi : 
Plafond : 
>= 8 km
>= 3000ft
5 à 8 km
1000 à 3000 ft
1500m à 5 km
500 à 1000 ft
800 à 1500m
200 à 500 ft
< 800m
< 200 ft
Symboles :   Orages  Brouillard  Fortes neiges  Fortes précipitations  Vent > 20 kt






- Altitude de l'aérodrome : 63 ft
- Code IATA : YYJ


CYYJ - Victoria International

DERNIER METAR :
  • 201600Z 28003KT 30SM FEW015 FEW200 FEW250 03/02 A3021 RMK SC1CC1CI1 SC TR CI TR SLP232

METARs EXPIRÉS :
  • 201500Z 29006KT 30SM FEW250 03/02 A3022 RMK CI1 CI TR SLP234
  • 201400Z 26004KT 15SM SKC 03/02 A3020 RMK SLP229

TAF TAF CYYJ
Valide du 20 à 12h jusqu'au 21 à 12h UTC


201138Z 2012/2112 29006KT P6SM SKC
TEMPO 2012/2017 SCT010
FM202000 03008KT P6SM FEW100
BECMG 2103/2105 29005KT RMK NXT FCST BY 201800Z



MET'MAP, la Météo Aéronautique d'un coup d'oeil ! - Copyright ORBIFLY Décembre 2007 - Disclaimer

ORBIFLY MET'MAP TEAM :

Programmation & Développement : Alexandra Zaïnal
Conception & Développement : Baudouin d'Aumeries
Co-Programmation & Développement : Marc-Olivier Méhu
Soutien technique & logistique : Manuel Goepfert

Contact : metmap@orbifly.com




SOURCES & CREDITS :

   NOAA       Earth
Advisory